sensor_id;sensor_type;location;lat;lon;timestamp;pressure;altitude;pressure_sealevel;temperature;humidity
41596;BME280;27283;52.504;13.358;2022-10-15T00:00:36;100501.03;;;14.24;83.92
41596;BME280;27283;52.504;13.358;2022-10-15T00:03:27;100500.88;;;14.32;83.99
41596;BME280;27283;52.504;13.358;2022-10-15T00:06:03;100500.66;;;14.34;84.13
41596;BME280;27283;52.504;13.358;2022-10-15T00:08:35;100496.84;;;14.22;84.67
41596;BME280;27283;52.504;13.358;2022-10-15T00:11:10;100501.47;;;14.28;85.24
41596;BME280;27283;52.504;13.358;2022-10-15T00:13:43;100496.06;;;14.28;86.32
41596;BME280;27283;52.504;13.358;2022-10-15T00:16:20;100489.00;;;14.05;87.62
41596;BME280;27283;52.504;13.358;2022-10-15T00:18:54;100480.38;;;14.16;88.88
41596;BME280;27283;52.504;13.358;2022-10-15T00:21:26;100482.50;;;14.21;88.40
41596;BME280;27283;52.504;13.358;2022-10-15T00:24:01;100479.31;;;14.17;89.51
41596;BME280;27283;52.504;13.358;2022-10-15T00:26:32;100466.09;;;14.29;90.16
41596;BME280;27283;52.504;13.358;2022-10-15T00:29:04;100471.22;;;14.46;89.50
41596;BME280;27283;52.504;13.358;2022-10-15T00:31:39;100464.16;;;14.45;89.75
41596;BME280;27283;52.504;13.358;2022-10-15T00:34:11;100471.22;;;14.46;90.25
41596;BME280;27283;52.504;13.358;2022-10-15T00:36:43;100470.00;;;14.55;90.29
41596;BME280;27283;52.504;13.358;2022-10-15T00:39:15;100470.13;;;14.68;89.49
41596;BME280;27283;52.504;13.358;2022-10-15T00:41:47;100462.09;;;14.53;90.50
41596;BME280;27283;52.504;13.358;2022-10-15T00:47:35;100461.81;;;14.42;91.53
41596;BME280;27283;52.504;13.358;2022-10-15T00:50:12;100466.41;;;14.41;91.68
41596;BME280;27283;52.504;13.358;2022-10-15T00:52:55;100469.91;;;14.35;91.35
41596;BME280;27283;52.504;13.358;2022-10-15T00:55:49;100457.78;;;14.31;91.82
41596;BME280;27283;52.504;13.358;2022-10-15T00:58:25;100456.34;;;14.28;92.28
41596;BME280;27283;52.504;13.358;2022-10-15T01:01:00;100448.13;;;14.15;93.34
41596;BME280;27283;52.504;13.358;2022-10-15T01:03:35;100455.72;;;13.98;95.30
41596;BME280;27283;52.504;13.358;2022-10-15T01:06:07;100438.66;;;14.32;91.47
41596;BME280;27283;52.504;13.358;2022-10-15T01:08:39;100435.88;;;14.19;93.01
41596;BME280;27283;52.504;13.358;2022-10-15T01:11:21;100431.81;;;14.02;94.32
41596;BME280;27283;52.504;13.358;2022-10-15T01:14:04;100429.53;;;14.33;92.59
41596;BME280;27283;52.504;13.358;2022-10-15T01:16:43;100424.72;;;14.29;92.74
41596;BME280;27283;52.504;13.358;2022-10-15T01:19:27;100422.84;;;14.29;93.21
41596;BME280;27283;52.504;13.358;2022-10-15T01:22:05;100422.34;;;14.19;93.56
41596;BME280;27283;52.504;13.358;2022-10-15T01:25:00;100417.19;;;14.24;93.26
41596;BME280;27283;52.504;13.358;2022-10-15T01:27:35;100421.81;;;14.02;94.45
41596;BME280;27283;52.504;13.358;2022-10-15T01:30:26;100419.94;;;14.31;92.79
41596;BME280;27283;52.504;13.358;2022-10-15T01:33:17;100409.13;;;14.31;94.41
41596;BME280;27283;52.504;13.358;2022-10-15T01:35:54;100412.97;;;14.15;94.33
41596;BME280;27283;52.504;13.358;2022-10-15T01:38:45;100412.19;;;14.21;93.99
41596;BME280;27283;52.504;13.358;2022-10-15T01:41:23;100407.78;;;14.13;95.15
41596;BME280;27283;52.504;13.358;2022-10-15T01:44:00;100402.00;;;13.95;96.92
41596;BME280;27283;52.504;13.358;2022-10-15T01:46:38;100404.25;;;13.85;97.73
41596;BME280;27283;52.504;13.358;2022-10-15T01:49:14;100397.16;;;13.83;98.17
41596;BME280;27283;52.504;13.358;2022-10-15T01:51:50;100396.31;;;14.11;96.26
41596;BME280;27283;52.504;13.358;2022-10-15T01:54:24;100403.59;;;14.11;96.62
41596;BME280;27283;52.504;13.358;2022-10-15T01:56:58;100401.13;;;14.16;95.69
41596;BME280;27283;52.504;13.358;2022-10-15T01:59:31;100405.31;;;14.18;96.16
41596;BME280;27283;52.504;13.358;2022-10-15T02:02:06;100396.19;;;14.26;96.05
41596;BME280;27283;52.504;13.358;2022-10-15T02:04:39;100388.81;;;13.78;98.85
41596;BME280;27283;52.504;13.358;2022-10-15T02:07:16;100386.88;;;13.72;99.44
41596;BME280;27283;52.504;13.358;2022-10-15T02:09:59;100387.22;;;13.62;100.00
41596;BME280;27283;52.504;13.358;2022-10-15T02:12:40;100380.59;;;13.65;100.00
41596;BME280;27283;52.504;13.358;2022-10-15T02:15:21;100379.66;;;13.79;100.00
41596;BME280;27283;52.504;13.358;2022-10-15T02:18:04;100381.25;;;13.95;98.01
41596;BME280;27283;52.504;13.358;2022-10-15T02:20:52;100369.97;;;13.92;99.02
41596;BME280;27283;52.504;13.358;2022-10-15T02:23:29;100370.75;;;13.86;99.67
41596;BME280;27283;52.504;13.358;2022-10-15T02:26:04;100372.22;;;13.81;99.65
41596;BME280;27283;52.504;13.358;2022-10-15T02:28:40;100378.44;;;13.82;100.00
41596;BME280;27283;52.504;13.358;2022-10-15T02:31:14;100376.06;;;14.00;99.52
41596;BME280;27283;52.504;13.358;2022-10-15T02:33:51;100377.75;;;14.02;98.35
41596;BME280;27283;52.504;13.358;2022-10-15T02:36:26;100370.13;;;14.12;98.55
41596;BME280;27283;52.504;13.358;2022-10-15T02:38:59;100376.16;;;14.14;97.60
41596;BME280;27283;52.504;13.358;2022-10-15T02:41:33;100368.34;;;13.97;99.49
41596;BME280;27283;52.504;13.358;2022-10-15T02:44:05;100367.84;;;14.15;97.99
41596;BME280;27283;52.504;13.358;2022-10-15T02:46:37;100363.91;;;14.18;97.41
41596;BME280;27283;52.504;13.358;2022-10-15T02:49:12;100360.34;;;14.11;98.01
41596;BME280;27283;52.504;13.358;2022-10-15T02:51:44;100364.25;;;14.08;98.61
41596;BME280;27283;52.504;13.358;2022-10-15T02:54:16;100356.69;;;14.25;97.71
41596;BME280;27283;52.504;13.358;2022-10-15T02:56:48;100354.81;;;14.26;97.38
41596;BME280;27283;52.504;13.358;2022-10-15T02:59:20;100359.84;;;14.35;97.42
41596;BME280;27283;52.504;13.358;2022-10-15T03:01:52;100364.13;;;14.16;98.97
41596;BME280;27283;52.504;13.358;2022-10-15T03:04:26;100354.53;;;14.14;98.46
41596;BME280;27283;52.504;13.358;2022-10-15T03:06:58;100354.03;;;14.39;97.02
41596;BME280;27283;52.504;13.358;2022-10-15T03:09:30;100360.22;;;14.26;97.56
41596;BME280;27283;52.504;13.358;2022-10-15T03:12:02;100355.03;;;14.31;97.57
41596;BME280;27283;52.504;13.358;2022-10-15T03:14:34;100360.31;;;14.46;96.75
41596;BME280;27283;52.504;13.358;2022-10-15T03:17:06;100348.47;;;14.53;95.67
41596;BME280;27283;52.504;13.358;2022-10-15T03:19:40;100361.59;;;14.50;95.76
41596;BME280;27283;52.504;13.358;2022-10-15T03:22:12;100350.69;;;14.36;96.13
41596;BME280;27283;52.504;13.358;2022-10-15T03:24:44;100348.97;;;14.22;97.73
41596;BME280;27283;52.504;13.358;2022-10-15T03:27:16;100347.63;;;14.11;98.37
41596;BME280;27283;52.504;13.358;2022-10-15T03:29:48;100344.09;;;14.04;98.77
41596;BME280;27283;52.504;13.358;2022-10-15T03:32:20;100338.22;;;14.00;99.11
41596;BME280;27283;52.504;13.358;2022-10-15T03:34:55;100332.03;;;14.48;95.92
41596;BME280;27283;52.504;13.358;2022-10-15T03:37:27;100336.44;;;14.56;94.58
41596;BME280;27283;52.504;13.358;2022-10-15T03:39:59;100334.69;;;14.00;98.38
41596;BME280;27283;52.504;13.358;2022-10-15T03:42:31;100330.81;;;14.16;98.31
41596;BME280;27283;52.504;13.358;2022-10-15T03:45:03;100332.69;;;14.15;98.75
41596;BME280;27283;52.504;13.358;2022-10-15T03:47:35;100335.19;;;14.10;98.90
41596;BME280;27283;52.504;13.358;2022-10-15T03:50:10;100337.41;;;14.00;99.40
41596;BME280;27283;52.504;13.358;2022-10-15T03:52:42;100332.06;;;14.13;98.15
41596;BME280;27283;52.504;13.358;2022-10-15T03:55:13;100335.72;;;13.99;99.62
41596;BME280;27283;52.504;13.358;2022-10-15T03:57:45;100338.41;;;13.99;99.90
41596;BME280;27283;52.504;13.358;2022-10-15T04:00:17;100333.81;;;13.93;99.52
41596;BME280;27283;52.504;13.358;2022-10-15T04:02:49;100334.44;;;13.95;99.80
41596;BME280;27283;52.504;13.358;2022-10-15T04:05:23;100331.50;;;14.25;97.26
41596;BME280;27283;52.504;13.358;2022-10-15T04:07:56;100346.63;;;14.19;97.94
41596;BME280;27283;52.504;13.358;2022-10-15T04:10:28;100342.22;;;14.05;99.00
41596;BME280;27283;52.504;13.358;2022-10-15T04:13:00;100343.19;;;14.39;96.77
41596;BME280;27283;52.504;13.358;2022-10-15T04:15:31;100335.66;;;14.21;97.34
41596;BME280;27283;52.504;13.358;2022-10-15T04:18:03;100342.44;;;14.10;97.96
41596;BME280;27283;52.504;13.358;2022-10-15T04:20:38;100345.19;;;14.16;97.86
41596;BME280;27283;52.504;13.358;2022-10-15T04:23:10;100348.81;;;13.95;98.82
41596;BME280;27283;52.504;13.358;2022-10-15T04:25:42;100343.38;;;14.30;96.18
41596;BME280;27283;52.504;13.358;2022-10-15T04:28:14;100352.63;;;14.08;98.15
41596;BME280;27283;52.504;13.358;2022-10-15T04:30:47;100343.31;;;14.17;97.40
41596;BME280;27283;52.504;13.358;2022-10-15T04:33:19;100346.78;;;14.04;98.05
41596;BME280;27283;52.504;13.358;2022-10-15T04:36:00;100349.94;;;14.14;97.30
41596;BME280;27283;52.504;13.358;2022-10-15T04:38:33;100353.09;;;14.18;97.61
41596;BME280;27283;52.504;13.358;2022-10-15T04:41:07;100349.34;;;14.19;96.92
41596;BME280;27283;52.504;13.358;2022-10-15T04:43:39;100354.69;;;14.06;98.24
41596;BME280;27283;52.504;13.358;2022-10-15T04:46:11;100349.53;;;14.17;97.74
41596;BME280;27283;52.504;13.358;2022-10-15T04:48:43;100349.81;;;13.94;99.00
41596;BME280;27283;52.504;13.358;2022-10-15T04:51:19;100346.22;;;14.15;98.90
41596;BME280;27283;52.504;13.358;2022-10-15T04:53:51;100351.78;;;14.07;98.51
41596;BME280;27283;52.504;13.358;2022-10-15T04:56:23;100352.66;;;14.14;99.13
41596;BME280;27283;52.504;13.358;2022-10-15T04:58:55;100354.41;;;14.29;97.35
41596;BME280;27283;52.504;13.358;2022-10-15T05:01:27;100350.34;;;14.46;96.22
41596;BME280;27283;52.504;13.358;2022-10-15T05:03:59;100357.72;;;14.31;97.18
41596;BME280;27283;52.504;13.358;2022-10-15T05:06:34;100352.69;;;14.63;94.79
41596;BME280;27283;52.504;13.358;2022-10-15T05:09:06;100349.19;;;14.27;97.70
41596;BME280;27283;52.504;13.358;2022-10-15T05:11:37;100347.78;;;14.31;96.34
41596;BME280;27283;52.504;13.358;2022-10-15T05:14:09;100349.19;;;14.27;96.72
41596;BME280;27283;52.504;13.358;2022-10-15T05:16:41;100345.88;;;14.32;96.95
41596;BME280;27283;52.504;13.358;2022-10-15T05:19:15;100346.31;;;14.35;96.73
41596;BME280;27283;52.504;13.358;2022-10-15T05:21:49;100347.78;;;14.31;97.49
41596;BME280;27283;52.504;13.358;2022-10-15T05:24:21;100348.78;;;14.30;97.12
41596;BME280;27283;52.504;13.358;2022-10-15T05:26:53;100353.34;;;14.65;95.20
41596;BME280;27283;52.504;13.358;2022-10-15T05:29:25;100342.38;;;14.80;93.56
41596;BME280;27283;52.504;13.358;2022-10-15T05:31:57;100354.22;;;14.79;93.39
41596;BME280;27283;52.504;13.358;2022-10-15T05:34:29;100356.31;;;14.42;96.08
41596;BME280;27283;52.504;13.358;2022-10-15T05:37:03;100359.28;;;14.47;95.70
41596;BME280;27283;52.504;13.358;2022-10-15T05:39:35;100362.50;;;14.29;96.82
41596;BME280;27283;52.504;13.358;2022-10-15T05:42:08;100359.44;;;14.39;96.51
41596;BME280;27283;52.504;13.358;2022-10-15T05:44:40;100361.69;;;14.28;97.34
41596;BME280;27283;52.504;13.358;2022-10-15T05:47:12;100363.47;;;14.14;98.29
41596;BME280;27283;52.504;13.358;2022-10-15T05:49:44;100367.03;;;14.22;97.99
41596;BME280;27283;52.504;13.358;2022-10-15T05:52:18;100369.84;;;14.42;96.68
41596;BME280;27283;52.504;13.358;2022-10-15T05:54:50;100372.91;;;14.25;97.85
41596;BME280;27283;52.504;13.358;2022-10-15T05:57:22;100368.59;;;14.38;97.27
41596;BME280;27283;52.504;13.358;2022-10-15T05:59:54;100376.22;;;14.21;98.63
41596;BME280;27283;52.504;13.358;2022-10-15T06:02:31;100383.66;;;14.18;99.34
41596;BME280;27283;52.504;13.358;2022-10-15T06:05:05;100382.94;;;14.03;99.77
41596;BME280;27283;52.504;13.358;2022-10-15T06:07:39;100389.88;;;14.12;99.45
41596;BME280;27283;52.504;13.358;2022-10-15T06:10:11;100386.84;;;13.94;99.92
41596;BME280;27283;52.504;13.358;2022-10-15T06:12:48;100392.50;;;14.34;98.15
41596;BME280;27283;52.504;13.358;2022-10-15T06:15:21;100396.56;;;14.16;98.04
41596;BME280;27283;52.504;13.358;2022-10-15T06:17:52;100393.50;;;14.26;98.09
41596;BME280;27283;52.504;13.358;2022-10-15T06:20:25;100397.59;;;14.15;98.36
41596;BME280;27283;52.504;13.358;2022-10-15T06:23:00;100403.78;;;14.09;99.11
41596;BME280;27283;52.504;13.358;2022-10-15T06:25:32;100401.06;;;14.38;97.86
41596;BME280;27283;52.504;13.358;2022-10-15T06:28:05;100402.69;;;14.32;97.11
41596;BME280;27283;52.504;13.358;2022-10-15T06:30:37;100407.81;;;14.20;97.94
41596;BME280;27283;52.504;13.358;2022-10-15T06:33:09;100409.19;;;14.44;97.55
41596;BME280;27283;52.504;13.358;2022-10-15T06:35:43;100397.56;;;14.50;97.21
41596;BME280;27283;52.504;13.358;2022-10-15T06:38:18;100393.41;;;14.89;94.89
41596;BME280;27283;52.504;13.358;2022-10-15T06:40:50;100406.00;;;15.31;92.23
41596;BME280;27283;52.504;13.358;2022-10-15T06:43:21;100403.97;;;15.59;90.30
41596;BME280;27283;52.504;13.358;2022-10-15T06:46:00;100414.78;;;15.39;91.72
41596;BME280;27283;52.504;13.358;2022-10-15T06:48:33;100412.25;;;15.24;92.20
41596;BME280;27283;52.504;13.358;2022-10-15T06:51:05;100414.19;;;15.51;90.93
41596;BME280;27283;52.504;13.358;2022-10-15T06:53:39;100409.56;;;15.31;91.56
41596;BME280;27283;52.504;13.358;2022-10-15T06:56:11;100424.75;;;15.26;92.01
41596;BME280;27283;52.504;13.358;2022-10-15T06:58:43;100424.25;;;15.02;93.19
41596;BME280;27283;52.504;13.358;2022-10-15T07:01:15;100425.13;;;15.09;93.29
41596;BME280;27283;52.504;13.358;2022-10-15T07:03:48;100430.84;;;15.48;91.58
41596;BME280;27283;52.504;13.358;2022-10-15T07:06:20;100437.09;;;15.48;92.25
41596;BME280;27283;52.504;13.358;2022-10-15T07:08:55;100441.97;;;15.93;90.32
41596;BME280;27283;52.504;13.358;2022-10-15T07:11:28;100446.34;;;16.14;89.18
41596;BME280;27283;52.504;13.358;2022-10-15T07:14:00;100456.34;;;16.00;89.05
41596;BME280;27283;52.504;13.358;2022-10-15T07:16:32;100461.13;;;16.18;88.79
41596;BME280;27283;52.504;13.358;2022-10-15T07:19:04;100459.66;;;16.09;89.34
41596;BME280;27283;52.504;13.358;2022-10-15T07:21:36;100463.41;;;16.21;88.38
41596;BME280;27283;52.504;13.358;2022-10-15T07:24:11;100461.16;;;15.91;89.44
41596;BME280;27283;52.504;13.358;2022-10-15T07:26:43;100453.19;;;16.30;87.84
41596;BME280;27283;52.504;13.358;2022-10-15T07:29:15;100447.16;;;16.15;89.21
41596;BME280;27283;52.504;13.358;2022-10-15T07:31:47;100444.00;;;16.31;87.54
41596;BME280;27283;52.504;13.358;2022-10-15T07:34:19;100440.47;;;16.30;86.93
41596;BME280;27283;52.504;13.358;2022-10-15T07:36:51;100442.50;;;16.55;86.93
41596;BME280;27283;52.504;13.358;2022-10-15T07:39:25;100440.34;;;16.77;86.01
41596;BME280;27283;52.504;13.358;2022-10-15T07:41:57;100442.41;;;16.89;85.71
41596;BME280;27283;52.504;13.358;2022-10-15T07:44:29;100439.91;;;16.87;83.79
41596;BME280;27283;52.504;13.358;2022-10-15T07:47:01;100445.84;;;17.16;84.78
41596;BME280;27283;52.504;13.358;2022-10-15T07:49:33;100439.50;;;17.29;84.87
41596;BME280;27283;52.504;13.358;2022-10-15T07:52:05;100445.63;;;17.49;82.38
41596;BME280;27283;52.504;13.358;2022-10-15T07:54:41;100452.16;;;17.74;80.81
41596;BME280;27283;52.504;13.358;2022-10-15T07:57:13;100439.19;;;17.76;81.06
41596;BME280;27283;52.504;13.358;2022-10-15T07:59:45;100439.41;;;17.74;80.85
41596;BME280;27283;52.504;13.358;2022-10-15T08:02:17;100445.19;;;17.84;80.80
41596;BME280;27283;52.504;13.358;2022-10-15T08:04:50;100443.06;;;17.93;80.45
41596;BME280;27283;52.504;13.358;2022-10-15T08:07:22;100436.69;;;17.74;81.85
41596;BME280;27283;52.504;13.358;2022-10-15T08:09:56;100443.13;;;18.12;80.55
41596;BME280;27283;52.504;13.358;2022-10-15T08:12:28;100446.38;;;18.20;79.99
41596;BME280;27283;52.504;13.358;2022-10-15T08:15:00;100443.25;;;18.42;77.80
41596;BME280;27283;52.504;13.358;2022-10-15T08:17:32;100452.31;;;18.54;79.08
41596;BME280;27283;52.504;13.358;2022-10-15T08:20:05;100458.59;;;18.73;76.80
41596;BME280;27283;52.504;13.358;2022-10-15T08:22:37;100462.59;;;19.08;75.55
41596;BME280;27283;52.504;13.358;2022-10-15T08:25:11;100462.94;;;19.00;75.51
41596;BME280;27283;52.504;13.358;2022-10-15T08:27:43;100456.16;;;19.21;74.53
41596;BME280;27283;52.504;13.358;2022-10-15T08:30:16;100452.16;;;19.65;73.47
41596;BME280;27283;52.504;13.358;2022-10-15T08:32:48;100458.50;;;20.61;69.36
41596;BME280;27283;52.504;13.358;2022-10-15T08:35:20;100463.88;;;20.79;66.43
41596;BME280;27283;52.504;13.358;2022-10-15T08:37:52;100463.59;;;21.33;66.69
41596;BME280;27283;52.504;13.358;2022-10-15T08:40:28;100464.38;;;21.46;66.08
41596;BME280;27283;52.504;13.358;2022-10-15T08:43:00;100467.34;;;21.44;63.23
41596;BME280;27283;52.504;13.358;2022-10-15T08:45:37;100464.81;;;20.14;66.25
41596;BME280;27283;52.504;13.358;2022-10-15T08:48:17;100459.16;;;20.04;69.34
41596;BME280;27283;52.504;13.358;2022-10-15T08:50:55;100459.22;;;21.49;64.23
41596;BME280;27283;52.504;13.358;2022-10-15T08:53:34;100461.69;;;22.30;62.28
41596;BME280;27283;52.504;13.358;2022-10-15T08:56:18;100469.28;;;21.89;61.39
41596;BME280;27283;52.504;13.358;2022-10-15T08:58:56;100466.75;;;22.22;58.56
41596;BME280;27283;52.504;13.358;2022-10-15T09:01:34;100469.50;;;22.39;58.44
41596;BME280;27283;52.504;13.358;2022-10-15T09:04:16;100476.03;;;23.16;56.63
41596;BME280;27283;52.504;13.358;2022-10-15T09:06:54;100476.28;;;22.53;58.12
41596;BME280;27283;52.504;13.358;2022-10-15T09:09:35;100481.84;;;21.73;63.11
41596;BME280;27283;52.504;13.358;2022-10-15T09:12:21;100476.38;;;21.45;64.23
41596;BME280;27283;52.504;13.358;2022-10-15T09:14:58;100481.88;;;21.04;65.42
41596;BME280;27283;52.504;13.358;2022-10-15T09:17:32;100477.91;;;20.47;67.70
41596;BME280;27283;52.504;13.358;2022-10-15T09:20:06;100480.50;;;20.07;70.48
41596;BME280;27283;52.504;13.358;2022-10-15T09:22:44;100476.22;;;19.99;67.81
41596;BME280;27283;52.504;13.358;2022-10-15T09:25:22;100477.31;;;20.22;68.35
41596;BME280;27283;52.504;13.358;2022-10-15T09:28:08;100474.00;;;20.43;66.64
41596;BME280;27283;52.504;13.358;2022-10-15T09:30:45;100476.22;;;20.23;67.51
41596;BME280;27283;52.504;13.358;2022-10-15T09:33:28;100473.84;;;20.50;67.89
41596;BME280;27283;52.504;13.358;2022-10-15T09:36:17;100480.75;;;20.29;65.64
41596;BME280;27283;52.504;13.358;2022-10-15T09:38:57;100482.91;;;20.39;67.02
41596;BME280;27283;52.504;13.358;2022-10-15T09:41:37;100482.53;;;20.59;68.89
41596;BME280;27283;52.504;13.358;2022-10-15T09:44:16;100483.09;;;20.01;68.24
41596;BME280;27283;52.504;13.358;2022-10-15T09:46:50;100491.72;;;19.87;67.32
41596;BME280;27283;52.504;13.358;2022-10-15T09:49:23;100482.19;;;20.43;66.27
41596;BME280;27283;52.504;13.358;2022-10-15T09:52:07;100482.75;;;20.45;65.13
41596;BME280;27283;52.504;13.358;2022-10-15T09:54:47;100486.19;;;20.29;66.95
41596;BME280;27283;52.504;13.358;2022-10-15T09:57:22;100485.59;;;20.03;66.90
41596;BME280;27283;52.504;13.358;2022-10-15T09:59:59;100479.91;;;20.16;66.70
41596;BME280;27283;52.504;13.358;2022-10-15T10:02:32;100483.94;;;20.38;66.33
41596;BME280;27283;52.504;13.358;2022-10-15T10:05:19;100488.69;;;20.89;65.27
41596;BME280;27283;52.504;13.358;2022-10-15T10:08:06;100489.91;;;20.46;66.61
41596;BME280;27283;52.504;13.358;2022-10-15T10:10:38;100496.56;;;20.50;65.10
41596;BME280;27283;52.504;13.358;2022-10-15T10:13:22;100495.69;;;20.62;65.03
41596;BME280;27283;52.504;13.358;2022-10-15T10:16:03;100491.19;;;20.56;65.25
41596;BME280;27283;52.504;13.358;2022-10-15T10:18:37;100497.13;;;20.41;65.76
41596;BME280;27283;52.504;13.358;2022-10-15T10:21:21;100500.72;;;20.41;66.55
41596;BME280;27283;52.504;13.358;2022-10-15T10:23:54;100501.88;;;20.33;68.06
41596;BME280;27283;52.504;13.358;2022-10-15T10:26:26;100499.28;;;20.39;65.89
41596;BME280;27283;52.504;13.358;2022-10-15T10:28:58;100493.44;;;20.47;65.61
41596;BME280;27283;52.504;13.358;2022-10-15T10:31:46;100497.16;;;20.76;63.92
41596;BME280;27283;52.504;13.358;2022-10-15T10:34:24;100492.00;;;21.03;64.74
41596;BME280;27283;52.504;13.358;2022-10-15T10:37:01;100500.25;;;21.20;62.76
41596;BME280;27283;52.504;13.358;2022-10-15T10:39:35;100498.50;;;21.14;62.92
41596;BME280;27283;52.504;13.358;2022-10-15T10:42:24;100496.34;;;21.16;62.07
41596;BME280;27283;52.504;13.358;2022-10-15T10:45:14;100495.53;;;21.04;63.41
41596;BME280;27283;52.504;13.358;2022-10-15T10:47:49;100492.72;;;20.99;64.39
41596;BME280;27283;52.504;13.358;2022-10-15T10:50:30;100499.66;;;20.78;64.55
41596;BME280;27283;52.504;13.358;2022-10-15T10:53:20;100503.88;;;21.09;65.27
41596;BME280;27283;52.504;13.358;2022-10-15T10:55:54;100500.22;;;20.92;63.29
41596;BME280;27283;52.504;13.358;2022-10-15T10:58:31;100509.75;;;21.18;63.20
41596;BME280;27283;52.504;13.358;2022-10-15T11:01:04;100499.78;;;21.12;63.55
41596;BME280;27283;52.504;13.358;2022-10-15T11:03:41;100499.72;;;20.95;62.97
41596;BME280;27283;52.504;13.358;2022-10-15T11:06:24;100493.69;;;20.81;62.39
41596;BME280;27283;52.504;13.358;2022-10-15T11:09:15;100497.69;;;21.42;63.40
41596;BME280;27283;52.504;13.358;2022-10-15T11:12:01;100490.00;;;21.28;62.02
41596;BME280;27283;52.504;13.358;2022-10-15T11:14:49;100484.78;;;20.74;62.69
41596;BME280;27283;52.504;13.358;2022-10-15T11:17:33;100502.97;;;21.20;61.80
41596;BME280;27283;52.504;13.358;2022-10-15T11:20:18;100501.16;;;21.38;62.61
41596;BME280;27283;52.504;13.358;2022-10-15T11:23:18;100494.00;;;21.08;61.98
41596;BME280;27283;52.504;13.358;2022-10-15T11:26:00;100485.00;;;20.96;62.07
41596;BME280;27283;52.504;13.358;2022-10-15T11:28:46;100489.75;;;21.29;63.60
41596;BME280;27283;52.504;13.358;2022-10-15T11:31:28;100489.66;;;21.24;63.27
41596;BME280;27283;52.504;13.358;2022-10-15T11:34:31;100488.88;;;21.40;64.63
41596;BME280;27283;52.504;13.358;2022-10-15T11:37:21;100481.06;;;20.92;62.68
41596;BME280;27283;52.504;13.358;2022-10-15T11:40:11;100487.59;;;21.31;63.25
41596;BME280;27283;52.504;13.358;2022-10-15T11:42:52;100476.28;;;21.68;60.99
41596;BME280;27283;52.504;13.358;2022-10-15T11:48:36;100474.72;;;21.72;60.87
41596;BME280;27283;52.504;13.358;2022-10-15T11:51:19;100480.41;;;22.00;59.46
41596;BME280;27283;52.504;13.358;2022-10-15T11:54:20;100484.38;;;22.09;57.34
41596;BME280;27283;52.504;13.358;2022-10-15T11:56:56;100479.44;;;22.28;58.98
41596;BME280;27283;52.504;13.358;2022-10-15T11:59:34;100479.78;;;21.81;57.38
41596;BME280;27283;52.504;13.358;2022-10-15T12:02:12;100480.59;;;21.81;59.61
41596;BME280;27283;52.504;13.358;2022-10-15T12:04:48;100469.72;;;21.69;59.45
41596;BME280;27283;52.504;13.358;2022-10-15T12:07:23;100473.16;;;21.93;59.25
41596;BME280;27283;52.504;13.358;2022-10-15T12:10:03;100478.13;;;21.80;58.56
41596;BME280;27283;52.504;13.358;2022-10-15T12:12:45;100474.69;;;21.55;59.35
41596;BME280;27283;52.504;13.358;2022-10-15T12:15:26;100474.38;;;21.40;58.95
41596;BME280;27283;52.504;13.358;2022-10-15T12:18:07;100474.41;;;21.28;59.79
41596;BME280;27283;52.504;13.358;2022-10-15T12:20:44;100475.88;;;21.19;59.68
41596;BME280;27283;52.504;13.358;2022-10-15T12:23:24;100474.09;;;21.24;59.73
41596;BME280;27283;52.504;13.358;2022-10-15T12:26:00;100473.69;;;21.33;59.49
41596;BME280;27283;52.504;13.358;2022-10-15T12:28:32;100480.09;;;21.10;60.27
41596;BME280;27283;52.504;13.358;2022-10-15T12:31:05;100474.69;;;21.55;60.62
41596;BME280;27283;52.504;13.358;2022-10-15T12:33:44;100480.41;;;21.54;59.60
41596;BME280;27283;52.504;13.358;2022-10-15T12:36:25;100479.59;;;21.53;60.22
41596;BME280;27283;52.504;13.358;2022-10-15T12:39:01;100482.69;;;21.04;60.56
41596;BME280;27283;52.504;13.358;2022-10-15T12:41:56;100490.97;;;21.21;59.76
41596;BME280;27283;52.504;13.358;2022-10-15T12:44:30;100482.03;;;20.97;60.03
41596;BME280;27283;52.504;13.358;2022-10-15T12:47:03;100488.38;;;21.15;59.48
41596;BME280;27283;52.504;13.358;2022-10-15T12:49:46;100482.00;;;21.38;61.31
41596;BME280;27283;52.504;13.358;2022-10-15T12:55:26;100474.84;;;21.08;59.94
41596;BME280;27283;52.504;13.358;2022-10-15T12:58:15;100476.41;;;21.33;60.18
41596;BME280;27283;52.504;13.358;2022-10-15T13:01:29;100470.66;;;20.77;60.75
41596;BME280;27283;52.504;13.358;2022-10-15T13:04:21;100469.03;;;21.04;61.96
41596;BME280;27283;52.504;13.358;2022-10-15T13:07:10;100466.34;;;20.93;62.91
41596;BME280;27283;52.504;13.358;2022-10-15T13:09:50;100471.16;;;21.14;61.77
41596;BME280;27283;52.504;13.358;2022-10-15T13:12:26;100463.66;;;20.81;62.33
41596;BME280;27283;52.504;13.358;2022-10-15T13:15:03;100461.16;;;20.32;62.93
41596;BME280;27283;52.504;13.358;2022-10-15T13:17:38;100456.03;;;20.71;64.78
41596;BME280;27283;52.504;13.358;2022-10-15T13:20:30;100463.19;;;20.72;64.02
41596;BME280;27283;52.504;13.358;2022-10-15T13:23:08;100461.38;;;20.89;63.63
41596;BME280;27283;52.504;13.358;2022-10-15T13:26:14;100463.94;;;21.08;61.82
41596;BME280;27283;52.504;13.358;2022-10-15T13:28:49;100469.94;;;20.81;61.99
41596;BME280;27283;52.504;13.358;2022-10-15T13:31:28;100470.84;;;20.99;63.22
41596;BME280;27283;52.504;13.358;2022-10-15T13:36:48;100461.50;;;20.59;62.94
41596;BME280;27283;52.504;13.358;2022-10-15T13:39:26;100454.03;;;20.66;61.60